createdAt,value
2016-03-27T00:00:02.652Z,0
2016-03-27T00:01:02.627Z,0
2016-03-27T00:02:02.597Z,0
2016-03-27T00:03:02.569Z,0
2016-03-27T00:04:02.556Z,0
2016-03-27T00:05:02.528Z,0
2016-03-27T00:06:02.515Z,0
2016-03-27T00:07:02.486Z,0
2016-03-27T00:08:02.474Z,0
2016-03-27T00:09:02.445Z,0
2016-03-27T00:10:02.416Z,0
2016-03-27T00:11:02.404Z,0
2016-03-27T00:12:02.375Z,0
2016-03-27T00:13:02.362Z,0
2016-03-27T00:14:02.333Z,0
2016-03-27T00:15:02.320Z,0
2016-03-27T00:16:02.292Z,0
2016-03-27T00:17:02.262Z,0
2016-03-27T00:18:02.245Z,0
2016-03-27T00:19:02.201Z,0
2016-03-27T00:20:02.158Z,0
2016-03-27T00:21:02.176Z,0
2016-03-27T00:22:02.086Z,0
2016-03-27T00:23:02.046Z,0
2016-03-27T00:24:02.012Z,0
2016-03-27T00:25:01.994Z,0
2016-03-27T00:26:01.976Z,0
2016-03-27T00:27:01.941Z,0
2016-03-27T00:28:01.909Z,0
2016-03-27T00:29:01.893Z,0
2016-03-27T00:30:01.894Z,0
2016-03-27T00:31:01.848Z,0
2016-03-27T00:32:01.802Z,0
2016-03-27T00:33:01.786Z,0
2016-03-27T00:34:01.772Z,0
2016-03-27T00:35:01.743Z,0
2016-03-27T00:36:01.714Z,0
2016-03-27T00:37:01.699Z,0
2016-03-27T00:38:01.671Z,0
2016-03-27T00:39:01.658Z,0
2016-03-27T00:40:01.630Z,0
2016-03-27T00:41:01.601Z,0
2016-03-27T00:42:01.588Z,0
2016-03-27T00:43:01.590Z,0
2016-03-27T00:44:01.547Z,0
2016-03-27T00:45:01.518Z,0
2016-03-27T00:46:01.505Z,0
2016-03-27T00:47:01.476Z,0
2016-03-27T00:48:01.464Z,0
2016-03-27T00:49:01.451Z,0
2016-03-27T00:50:01.406Z,0
2016-03-27T00:51:01.394Z,0
2016-03-27T00:52:01.381Z,0
2016-03-27T00:53:01.353Z,0
2016-03-27T00:54:01.323Z,0
2016-03-27T00:55:01.294Z,0
2016-03-27T00:56:01.283Z,0
2016-03-27T00:57:01.253Z,0
2016-03-27T00:58:01.225Z,0
2016-03-27T00:59:01.212Z,0
2016-03-27T01:00:01.199Z,0
2016-03-27T01:01:01.171Z,0
2016-03-27T01:02:01.127Z,0
2016-03-27T01:03:01.129Z,0
2016-03-27T01:04:01.100Z,0
2016-03-27T01:05:01.072Z,0
2016-03-27T01:06:01.059Z,0
2016-03-27T01:07:01.031Z,0
2016-03-27T01:08:01.006Z,0
2016-03-27T01:09:00.992Z,0
2016-03-27T01:10:00.964Z,0
2016-03-27T01:11:00.936Z,0
2016-03-27T01:12:00.922Z,0
2016-03-27T01:13:00.895Z,0
2016-03-27T01:14:00.881Z,0
2016-03-27T01:15:00.868Z,0
2016-03-27T01:16:00.840Z,0
2016-03-27T01:17:00.811Z,0
2016-03-27T01:18:00.782Z,0
2016-03-27T01:19:00.770Z,0
2016-03-27T01:20:00.741Z,0
2016-03-27T01:21:00.728Z,0
2016-03-27T01:22:00.700Z,0
2016-03-27T01:23:00.687Z,0
2016-03-27T01:24:00.658Z,0
2016-03-27T01:25:00.646Z,0
2016-03-27T01:26:00.632Z,0
2016-03-27T01:27:00.603Z,0
2016-03-27T01:28:00.591Z,0
2016-03-27T01:29:00.546Z,0
2016-03-27T01:30:00.534Z,0
2016-03-27T01:31:00.490Z,0
2016-03-27T01:32:00.492Z,0
2016-03-27T01:33:00.479Z,0
2016-03-27T01:34:00.451Z,0
2016-03-27T01:35:00.422Z,0
2016-03-27T01:36:00.409Z,0
2016-03-27T01:37:00.381Z,0
2016-03-27T01:38:00.352Z,0
2016-03-27T01:39:00.339Z,0
2016-03-27T01:40:00.311Z,0
2016-03-27T01:41:00.298Z,0
2016-03-27T01:42:00.270Z,0
2016-03-27T01:43:00.256Z,0
2016-03-27T01:44:00.227Z,0
2016-03-27T01:45:00.214Z,0
2016-03-27T01:46:00.186Z,0
2016-03-27T01:47:00.173Z,0
2016-03-27T01:48:00.160Z,0
2016-03-27T01:49:00.116Z,0
2016-03-27T01:50:00.103Z,0
2016-03-27T01:51:00.075Z,0
2016-03-27T01:52:00.061Z,0
2016-03-27T01:53:00.033Z,0
2016-03-27T01:54:00.021Z,0
2016-03-27T01:54:59.991Z,0
2016-03-27T01:55:59.979Z,0
2016-03-27T01:56:59.950Z,0
2016-03-27T01:57:59.937Z,0
2016-03-27T01:58:59.924Z,0
2016-03-27T01:59:59.896Z,0
2016-03-27T02:00:59.882Z,0
2016-03-27T02:02:00.026Z,0
2016-03-27T02:02:59.826Z,0
2016-03-27T02:03:59.797Z,0
2016-03-27T02:04:59.785Z,0
2016-03-27T02:05:59.756Z,0
2016-03-27T02:06:59.610Z,0
2016-03-27T02:07:59.769Z,0
2016-03-27T02:08:59.709Z,0
2016-03-27T02:10:00.306Z,0
2016-03-27T02:11:00.256Z,0
2016-03-27T02:11:59.634Z,0
2016-03-27T02:12:59.620Z,0
2016-03-27T02:13:59.609Z,0
2016-03-27T02:14:59.579Z,0
2016-03-27T02:15:59.550Z,0
2016-03-27T02:16:59.616Z,0
2016-03-27T02:17:59.525Z,0
2016-03-27T02:18:59.481Z,0
2016-03-27T02:19:59.468Z,0
2016-03-27T02:20:59.439Z,0
2016-03-27T02:21:59.442Z,0
2016-03-27T02:22:59.398Z,0
2016-03-27T02:23:59.400Z,0
2016-03-27T02:24:59.355Z,0
2016-03-27T02:25:59.327Z,0
2016-03-27T02:26:59.315Z,0
2016-03-27T02:27:59.302Z,0
2016-03-27T02:28:59.274Z,0
2016-03-27T02:29:59.244Z,0
2016-03-27T02:30:59.232Z,0
2016-03-27T02:31:59.329Z,0
2016-03-27T02:32:59.190Z,0
2016-03-27T02:33:59.005Z,0
2016-03-27T02:34:59.148Z,0
2016-03-27T02:35:59.121Z,0
2016-03-27T02:36:59.092Z,0
2016-03-27T02:37:59.079Z,0
2016-03-27T02:38:59.051Z,0
2016-03-27T02:39:59.037Z,0
2016-03-27T02:40:59.024Z,0
2016-03-27T02:41:58.996Z,0
2016-03-27T02:42:58.967Z,0
2016-03-27T02:43:58.954Z,0
2016-03-27T02:44:58.925Z,0
2016-03-27T02:45:58.912Z,0
2016-03-27T02:46:58.978Z,0
2016-03-27T02:47:58.856Z,0
2016-03-27T02:48:58.842Z,0
2016-03-27T02:49:58.814Z,0
2016-03-27T02:50:58.786Z,0
2016-03-27T02:51:58.772Z,0
2016-03-27T02:52:58.760Z,0
2016-03-27T02:53:58.731Z,0
2016-03-27T02:54:58.702Z,0
2016-03-27T02:55:58.705Z,0
2016-03-27T02:56:58.661Z,0
2016-03-27T02:57:58.648Z,0
2016-03-27T02:58:58.620Z,0
2016-03-27T02:59:58.607Z,0
2016-03-27T03:00:58.562Z,0
2016-03-27T03:01:58.441Z,0
2016-03-27T03:02:58.552Z,0
2016-03-27T03:03:58.524Z,0
2016-03-27T03:04:58.480Z,0
2016-03-27T03:05:58.466Z,0
2016-03-27T03:06:58.438Z,0
2016-03-27T03:07:58.426Z,0
2016-03-27T03:08:58.412Z,0
2016-03-27T03:09:58.383Z,0
2016-03-27T03:10:58.371Z,0
2016-03-27T03:11:58.357Z,0
2016-03-27T03:12:58.314Z,0
2016-03-27T03:13:58.285Z,0
2016-03-27T03:14:58.272Z,0
2016-03-27T03:15:58.243Z,0
2016-03-27T03:16:58.340Z,0
2016-03-27T03:17:58.202Z,0
2016-03-27T03:18:58.173Z,0
2016-03-27T03:19:58.161Z,0
2016-03-27T03:20:58.131Z,0
2016-03-27T03:21:58.104Z,0
2016-03-27T03:22:58.091Z,0
2016-03-27T03:23:58.077Z,0
2016-03-27T03:24:58.065Z,0
2016-03-27T03:25:58.052Z,0
2016-03-27T03:26:58.008Z,0
2016-03-27T03:27:57.994Z,0
2016-03-27T03:28:57.950Z,0
2016-03-27T03:29:57.937Z,0
2016-03-27T03:30:57.909Z,0
2016-03-27T03:31:57.896Z,0
2016-03-27T03:32:57.882Z,0
2016-03-27T03:33:57.855Z,0
2016-03-27T03:34:57.841Z,0
2016-03-27T03:35:57.812Z,0
2016-03-27T03:36:57.785Z,0
2016-03-27T03:37:57.787Z,0
2016-03-27T03:38:57.759Z,0
2016-03-27T03:39:57.746Z,0
2016-03-27T03:40:57.717Z,0
2016-03-27T03:41:57.688Z,0
2016-03-27T03:42:57.660Z,0
2016-03-27T03:43:56.912Z,0
2016-03-27T03:44:57.618Z,0
2016-03-27T03:45:57.606Z,0
2016-03-27T03:46:57.576Z,0
2016-03-27T03:47:57.548Z,0
2016-03-27T03:48:57.536Z,0
2016-03-27T03:49:57.522Z,0
2016-03-27T03:50:57.494Z,0
2016-03-27T03:51:57.481Z,0
2016-03-27T03:52:57.452Z,0
2016-03-27T03:53:57.424Z,0
2016-03-27T03:54:57.395Z,0
2016-03-27T03:55:57.382Z,0
2016-03-27T03:56:57.354Z,0
2016-03-27T03:57:57.341Z,0
2016-03-27T03:58:57.313Z,0
2016-03-27T03:59:57.283Z,0
2016-03-27T04:00:57.255Z,0
2016-03-27T04:01:57.258Z,0
2016-03-27T04:02:57.229Z,0
2016-03-27T04:03:57.216Z,0
2016-03-27T04:04:57.188Z,0
2016-03-27T04:05:57.175Z,0
2016-03-27T04:06:57.162Z,0
2016-03-27T04:07:57.135Z,0
2016-03-27T04:08:57.106Z,0
2016-03-27T04:09:57.094Z,0
2016-03-27T04:10:57.065Z,0
2016-03-27T04:11:57.036Z,0
2016-03-27T04:12:57.023Z,0
2016-03-27T04:13:57.011Z,0
2016-03-27T04:14:56.983Z,0
2016-03-27T04:15:56.969Z,0
2016-03-27T04:16:56.956Z,0
2016-03-27T04:17:56.912Z,0
2016-03-27T04:18:56.900Z,0
2016-03-27T04:19:56.886Z,0
2016-03-27T04:20:56.873Z,0
2016-03-27T04:21:56.861Z,0
2016-03-27T04:22:56.832Z,0
2016-03-27T04:23:56.803Z,0
2016-03-27T04:24:56.775Z,0
2016-03-27T04:25:56.746Z,0
2016-03-27T04:26:56.733Z,0
2016-03-27T04:27:56.705Z,0
2016-03-27T04:28:56.676Z,0
2016-03-27T04:29:56.647Z,0
2016-03-27T04:30:56.635Z,0
2016-03-27T04:31:56.621Z,0
2016-03-27T04:32:56.593Z,0
2016-03-27T04:33:56.580Z,0
2016-03-27T04:34:56.551Z,0
2016-03-27T04:35:56.539Z,0
2016-03-27T04:36:56.510Z,0
2016-03-27T04:37:56.482Z,0
2016-03-27T04:38:56.468Z,0
2016-03-27T04:39:56.440Z,0
2016-03-27T04:40:56.427Z,0
2016-03-27T04:41:56.399Z,4
2016-03-27T04:42:56.386Z,0
2016-03-27T04:43:56.372Z,0
2016-03-27T04:44:56.344Z,4
2016-03-27T04:45:56.316Z,4
2016-03-27T04:46:56.303Z,4
2016-03-27T04:47:56.274Z,4
2016-03-27T04:48:56.261Z,4
2016-03-27T04:49:56.248Z,8
2016-03-27T04:50:56.219Z,8
2016-03-27T04:51:56.191Z,8
2016-03-27T04:52:56.178Z,8
2016-03-27T04:53:56.149Z,8
2016-03-27T04:54:56.121Z,12
2016-03-27T04:55:56.108Z,12
2016-03-27T04:56:55.923Z,16
2016-03-27T04:57:56.066Z,16
2016-03-27T04:58:56.038Z,20
2016-03-27T04:59:56.009Z,20
2016-03-27T05:00:55.996Z,24
2016-03-27T05:01:55.984Z,24
2016-03-27T05:02:55.954Z,24
2016-03-27T05:03:55.942Z,32
2016-03-27T05:04:55.913Z,32
2016-03-27T05:05:55.900Z,32
2016-03-27T05:06:55.716Z,32
2016-03-27T05:07:55.859Z,40
2016-03-27T05:08:55.831Z,52
2016-03-27T05:09:55.818Z,64
2016-03-27T05:10:55.789Z,68
2016-03-27T05:11:55.761Z,72
2016-03-27T05:12:55.747Z,76
2016-03-27T05:13:55.719Z,72
2016-03-27T05:14:55.705Z,68
2016-03-27T05:15:55.693Z,76
2016-03-27T05:16:55.664Z,92
2016-03-27T05:17:55.636Z,96
2016-03-27T05:18:55.623Z,88
2016-03-27T05:19:55.594Z,72
2016-03-27T05:20:55.581Z,60
2016-03-27T05:21:55.569Z,56
2016-03-27T05:22:55.540Z,52
2016-03-27T05:23:55.511Z,68
2016-03-27T05:24:55.483Z,84
2016-03-27T05:25:55.469Z,116
2016-03-27T05:26:55.442Z,144
2016-03-27T05:27:55.444Z,144
2016-03-27T05:28:55.399Z,140
2016-03-27T05:29:55.388Z,132
2016-03-27T05:30:55.374Z,124
2016-03-27T05:31:55.345Z,124
2016-03-27T05:32:55.332Z,124
2016-03-27T05:33:55.304Z,116
2016-03-27T05:34:55.291Z,116
2016-03-27T05:35:55.263Z,128
2016-03-27T05:36:55.249Z,132
2016-03-27T05:37:55.220Z,152
2016-03-27T05:38:55.193Z,208
2016-03-27T05:39:55.179Z,256
2016-03-27T05:40:55.150Z,232
2016-03-27T05:41:55.138Z,224
2016-03-27T05:42:55.109Z,244
2016-03-27T05:43:55.081Z,256
2016-03-27T05:44:55.068Z,236
2016-03-27T05:45:55.055Z,236
2016-03-27T05:46:55.026Z,260
2016-03-27T05:47:54.997Z,260
2016-03-27T05:48:54.985Z,232
2016-03-27T05:49:54.972Z,248
2016-03-27T05:50:54.944Z,304
2016-03-27T05:51:54.930Z,316
2016-03-27T05:52:54.903Z,324
2016-03-27T05:53:54.874Z,324
2016-03-27T05:54:54.844Z,320
2016-03-27T05:55:54.832Z,272
2016-03-27T05:56:54.819Z,224
2016-03-27T05:57:54.774Z,228
2016-03-27T05:58:54.746Z,216
2016-03-27T05:59:54.733Z,192
2016-03-27T06:00:54.720Z,192
2016-03-27T06:01:54.692Z,204
2016-03-27T06:02:54.679Z,276
2016-03-27T06:03:54.665Z,328
2016-03-27T06:04:54.638Z,316
2016-03-27T06:05:54.624Z,272
2016-03-27T06:06:54.579Z,276
2016-03-27T06:07:54.552Z,336
2016-03-27T06:08:54.539Z,312
2016-03-27T06:09:54.510Z,272
2016-03-27T06:10:54.498Z,256
2016-03-27T06:11:54.468Z,232
2016-03-27T06:12:54.440Z,216
2016-03-27T06:13:54.428Z,200
2016-03-27T06:14:54.398Z,228
2016-03-27T06:15:54.369Z,248
2016-03-27T06:16:54.357Z,288
2016-03-27T06:17:54.328Z,328
2016-03-27T06:18:54.316Z,276
2016-03-27T06:19:54.303Z,256
2016-03-27T06:20:54.258Z,268
2016-03-27T06:21:54.245Z,360
2016-03-27T06:22:54.217Z,408
2016-03-27T06:23:54.188Z,464
2016-03-27T06:24:54.175Z,524
2016-03-27T06:25:54.147Z,612
2016-03-27T06:26:54.118Z,576
2016-03-27T06:27:54.091Z,628
2016-03-27T06:28:54.077Z,840
2016-03-27T06:29:54.048Z,1076
2016-03-27T06:30:54.036Z,1236
2016-03-27T06:31:54.007Z,1292
2016-03-27T06:32:53.993Z,1424
2016-03-27T06:33:53.966Z,1344
2016-03-27T06:34:53.952Z,1104
2016-03-27T06:35:53.924Z,1108
2016-03-27T06:36:53.895Z,988
2016-03-27T06:37:53.867Z,1012
2016-03-27T06:38:53.838Z,968
2016-03-27T06:39:53.825Z,1172
2016-03-27T06:40:53.796Z,1432
2016-03-27T06:41:53.768Z,1604
2016-03-27T06:42:53.739Z,1520
2016-03-27T06:43:53.727Z,1328
2016-03-27T06:44:53.698Z,1456
2016-03-27T06:45:53.670Z,1524
2016-03-27T06:46:53.656Z,1416
2016-03-27T06:47:53.628Z,1260
2016-03-27T06:48:53.615Z,1312
2016-03-27T06:49:53.587Z,1216
2016-03-27T06:50:53.573Z,1264
2016-03-27T06:51:53.530Z,1400
2016-03-27T06:52:53.516Z,1392
2016-03-27T06:53:53.472Z,1696
2016-03-27T06:54:53.458Z,1700
2016-03-27T06:55:53.447Z,2024
2016-03-27T06:56:53.402Z,2108
2016-03-27T06:57:53.388Z,2088
2016-03-27T06:58:53.361Z,2160
2016-03-27T06:59:53.332Z,2240
2016-03-27T07:00:53.319Z,2324
2016-03-27T07:01:53.291Z,2164
2016-03-27T07:02:53.262Z,2188
2016-03-27T07:03:53.265Z,2328
2016-03-27T07:04:53.221Z,2272
2016-03-27T07:05:53.207Z,2400
2016-03-27T07:06:53.195Z,2696
2016-03-27T07:07:53.151Z,2812
2016-03-27T07:08:53.122Z,2576
2016-03-27T07:09:53.093Z,2780
2016-03-27T07:10:53.080Z,3264
2016-03-27T07:11:53.052Z,3404
2016-03-27T07:12:52.867Z,3836
2016-03-27T07:13:52.994Z,4140
2016-03-27T07:14:52.967Z,4288
2016-03-27T07:15:52.969Z,4100
2016-03-27T07:16:52.940Z,3352
2016-03-27T07:17:53.100Z,2996
2016-03-27T07:18:52.883Z,2916
2016-03-27T07:19:52.855Z,3296
2016-03-27T07:20:52.826Z,3356
2016-03-27T07:21:52.813Z,3932
2016-03-27T07:22:52.784Z,4120
2016-03-27T07:23:52.756Z,4176
2016-03-27T07:24:52.744Z,4196
2016-03-27T07:25:52.714Z,4048
2016-03-27T07:26:52.686Z,3708
2016-03-27T07:27:52.658Z,3180
2016-03-27T07:28:52.645Z,3608
2016-03-27T07:29:52.631Z,4828
2016-03-27T07:30:52.603Z,4664
2016-03-27T07:31:52.574Z,4564
2016-03-27T07:32:52.624Z,5036
2016-03-27T07:33:52.533Z,5584
2016-03-27T07:34:52.504Z,5808
2016-03-27T07:35:52.476Z,6064
2016-03-27T07:36:52.447Z,5948
2016-03-27T07:37:52.418Z,5832
2016-03-27T07:38:52.406Z,5712
2016-03-27T07:39:52.377Z,5064
2016-03-27T07:40:52.348Z,4192
2016-03-27T07:41:52.336Z,4512
2016-03-27T07:42:52.307Z,3880
2016-03-27T07:43:52.294Z,3208
2016-03-27T07:44:52.266Z,4260
2016-03-27T07:45:52.237Z,5004
2016-03-27T07:46:52.223Z,4684
2016-03-27T07:47:52.273Z,4476
2016-03-27T07:48:52.167Z,4468
2016-03-27T07:49:52.139Z,4500
2016-03-27T07:50:52.109Z,4112
2016-03-27T07:51:52.081Z,3320
2016-03-27T07:52:52.069Z,3368
2016-03-27T07:53:52.039Z,3040
2016-03-27T07:54:52.027Z,2744
2016-03-27T07:55:51.998Z,2356
2016-03-27T07:56:51.969Z,2320
2016-03-27T07:57:51.958Z,2040
2016-03-27T07:58:51.928Z,2292
2016-03-27T07:59:51.743Z,2140
2016-03-27T08:00:51.887Z,3012
2016-03-27T08:01:51.858Z,2812
2016-03-27T08:02:51.938Z,2088
2016-03-27T08:03:51.801Z,2556
2016-03-27T08:04:51.772Z,2784
2016-03-27T08:05:51.743Z,2948
2016-03-27T08:06:51.716Z,2880
2016-03-27T08:07:51.702Z,3208
2016-03-27T08:08:51.673Z,2972
2016-03-27T08:09:51.646Z,2704
2016-03-27T08:10:51.632Z,3176
2016-03-27T08:11:51.619Z,3172
2016-03-27T08:12:51.576Z,2532
2016-03-27T08:13:51.562Z,2768
2016-03-27T08:14:51.534Z,4704
2016-03-27T08:15:51.506Z,6556
2016-03-27T08:16:51.492Z,7476
2016-03-27T08:17:51.307Z,7996
2016-03-27T08:18:51.435Z,8396
2016-03-27T08:19:51.406Z,8456
2016-03-27T08:20:51.394Z,9020
2016-03-27T08:21:51.350Z,9888
2016-03-27T08:22:51.337Z,10212
2016-03-27T08:23:51.308Z,9800
2016-03-27T08:24:51.295Z,9572
2016-03-27T08:25:51.282Z,9468
2016-03-27T08:26:51.253Z,9644
2016-03-27T08:27:51.209Z,10492
2016-03-27T08:28:51.180Z,11124
2016-03-27T08:29:51.168Z,11260
2016-03-27T08:30:51.139Z,11500
2016-03-27T08:31:51.127Z,11608
2016-03-27T08:32:51.051Z,10968
2016-03-27T08:33:51.069Z,8780
2016-03-27T08:34:51.041Z,6488
2016-03-27T08:35:51.027Z,5640
2016-03-27T08:36:50.999Z,4876
2016-03-27T08:37:50.971Z,5068
2016-03-27T08:38:50.942Z,5052
2016-03-27T08:39:50.930Z,4568
2016-03-27T08:40:50.916Z,4176
2016-03-27T08:41:50.887Z,4308
2016-03-27T08:42:50.703Z,4800
2016-03-27T08:43:50.831Z,5012
2016-03-27T08:44:50.801Z,5364
2016-03-27T08:45:50.851Z,5732
2016-03-27T08:46:50.745Z,6268
2016-03-27T08:47:50.731Z,7144
2016-03-27T08:48:50.704Z,8180
2016-03-27T08:49:50.690Z,8664
2016-03-27T08:50:50.661Z,8700
2016-03-27T08:51:50.634Z,9104
2016-03-27T08:52:50.620Z,9500
2016-03-27T08:53:50.591Z,9748
2016-03-27T08:54:50.548Z,9988
2016-03-27T08:55:50.534Z,10344
2016-03-27T08:56:50.522Z,10624
2016-03-27T08:57:50.509Z,11156
2016-03-27T08:58:50.464Z,12268
2016-03-27T08:59:50.639Z,13664
2016-03-27T09:00:50.407Z,14708
2016-03-27T09:01:50.379Z,15088
2016-03-27T09:02:50.366Z,15380
2016-03-27T09:03:50.337Z,15288
2016-03-27T09:04:50.309Z,14584
2016-03-27T09:05:50.280Z,13440
2016-03-27T09:06:50.268Z,12476
2016-03-27T09:07:50.252Z,12592
2016-03-27T09:08:50.239Z,13004
2016-03-27T09:09:50.211Z,12956
2016-03-27T09:10:50.182Z,13088
2016-03-27T09:11:50.154Z,12968
2016-03-27T09:12:50.141Z,13064
2016-03-27T09:13:50.097Z,13668
2016-03-27T09:14:50.068Z,14548
2016-03-27T09:15:50.055Z,15284
2016-03-27T09:16:50.027Z,15500
2016-03-27T09:17:49.998Z,14688
2016-03-27T09:18:49.985Z,14108
2016-03-27T09:19:49.957Z,14284
2016-03-27T09:20:49.974Z,14816
2016-03-27T09:21:49.916Z,14560
2016-03-27T09:22:49.887Z,14480
2016-03-27T09:23:49.869Z,15168
2016-03-27T09:24:49.829Z,16600
2016-03-27T09:25:49.788Z,18496
2016-03-27T09:26:49.763Z,19488
2016-03-27T09:27:49.723Z,18720
2016-03-27T09:28:49.685Z,18048
2016-03-27T09:29:49.653Z,18400
2016-03-27T09:30:49.636Z,20352
2016-03-27T09:31:49.618Z,23744
2016-03-27T09:32:49.633Z,25888
2016-03-27T09:33:49.553Z,27008
2016-03-27T09:34:49.523Z,27424
2016-03-27T09:35:49.352Z,27616
2016-03-27T09:36:49.323Z,27808
2016-03-27T09:37:49.480Z,28320
2016-03-27T09:38:49.435Z,27552
2016-03-27T09:39:49.437Z,26720
2016-03-27T09:40:49.393Z,24160
2016-03-27T09:41:49.380Z,23616
2016-03-27T09:42:49.350Z,24512
2016-03-27T09:43:49.320Z,24960
2016-03-27T09:44:49.308Z,25632
2016-03-27T09:45:49.279Z,25472
2016-03-27T09:46:49.266Z,24704
2016-03-27T09:47:49.237Z,24256
2016-03-27T09:48:49.239Z,25760
2016-03-27T09:49:49.242Z,26560
2016-03-27T09:50:49.182Z,26272
2016-03-27T09:51:49.154Z,26080
2016-03-27T09:52:49.140Z,26304
2016-03-27T09:53:49.112Z,27776
2016-03-27T09:54:49.098Z,28832
2016-03-27T09:55:49.071Z,25536
2016-03-27T09:56:49.073Z,21280
2016-03-27T09:57:49.028Z,23840
2016-03-27T09:58:49.017Z,24960
2016-03-27T09:59:49.003Z,26208
2016-03-27T10:00:48.974Z,26240
2016-03-27T10:01:48.962Z,23584
2016-03-27T10:02:48.933Z,22176
2016-03-27T10:03:48.905Z,23136
2016-03-27T10:04:48.908Z,24640
2016-03-27T10:05:48.863Z,26304
2016-03-27T10:06:48.850Z,25088
2016-03-27T10:07:48.838Z,24352
2016-03-27T10:08:48.808Z,26560
2016-03-27T10:09:48.796Z,27264
2016-03-27T10:10:48.767Z,25472
2016-03-27T10:11:48.754Z,24864
2016-03-27T10:12:48.741Z,25856
2016-03-27T10:13:48.713Z,23712
2016-03-27T10:14:48.699Z,19744
2016-03-27T10:15:48.671Z,16580
2016-03-27T10:16:48.658Z,14488
2016-03-27T10:17:48.629Z,18304
2016-03-27T10:18:48.617Z,19552
2016-03-27T10:19:48.588Z,20608
2016-03-27T10:20:48.559Z,15440
2016-03-27T10:21:48.547Z,15064
2016-03-27T10:22:48.534Z,17856
2016-03-27T10:23:48.505Z,18176
2016-03-27T10:24:48.493Z,19712
2016-03-27T10:25:48.464Z,20512
2016-03-27T10:26:48.434Z,23392
2016-03-27T10:27:48.423Z,25984
2016-03-27T10:28:48.394Z,22144
2016-03-27T10:29:48.381Z,18880
2016-03-27T10:30:48.367Z,17856
2016-03-27T10:31:48.339Z,22784
2016-03-27T10:32:48.325Z,27072
2016-03-27T10:33:48.298Z,28864
2016-03-27T10:34:48.285Z,30208
2016-03-27T10:35:48.255Z,30144
2016-03-27T10:36:48.244Z,30112
2016-03-27T10:37:48.230Z,28672
2016-03-27T10:38:48.202Z,29824
2016-03-27T10:39:48.189Z,27328
2016-03-27T10:40:48.160Z,26624
2016-03-27T10:41:48.132Z,29920
2016-03-27T10:42:48.119Z,33184
2016-03-27T10:43:48.105Z,27104
2016-03-27T10:44:48.093Z,21344
2016-03-27T10:45:48.080Z,20448
2016-03-27T10:46:48.052Z,22400
2016-03-27T10:47:48.008Z,22912
2016-03-27T10:48:47.994Z,26592
2016-03-27T10:49:47.981Z,30144
2016-03-27T10:50:47.984Z,34272
2016-03-27T10:51:47.940Z,30144
2016-03-27T10:52:47.911Z,23232
2016-03-27T10:53:47.914Z,22528
2016-03-27T10:54:47.885Z,29824
2016-03-27T10:55:47.857Z,30944
2016-03-27T10:56:47.859Z,31296
2016-03-27T10:57:47.815Z,29152
2016-03-27T10:58:47.803Z,28928
2016-03-27T10:59:47.820Z,29376
2016-03-27T11:00:47.776Z,23552
2016-03-27T11:01:47.748Z,28416
2016-03-27T11:02:47.735Z,27072
2016-03-27T11:03:47.707Z,29312
2016-03-27T11:04:47.725Z,33984
2016-03-27T11:05:47.680Z,29888
2016-03-27T11:06:47.668Z,31200
2016-03-27T11:07:47.639Z,23616
2016-03-27T11:08:47.626Z,24256
2016-03-27T11:09:47.613Z,23456
2016-03-27T11:10:47.585Z,23776
2016-03-27T11:11:47.572Z,26368
2016-03-27T11:12:47.558Z,20768
2016-03-27T11:13:47.546Z,24352
2016-03-27T11:14:47.518Z,24288
2016-03-27T11:15:47.504Z,24928
2016-03-27T11:16:47.476Z,25984
2016-03-27T11:17:47.463Z,23520
2016-03-27T11:18:47.434Z,24672
2016-03-27T11:19:47.438Z,28032
2016-03-27T11:20:47.409Z,30208
2016-03-27T11:21:47.379Z,31520
2016-03-27T11:22:47.383Z,30656
2016-03-27T11:23:47.354Z,27392
2016-03-27T11:24:47.340Z,27776
2016-03-27T11:25:47.312Z,26432
2016-03-27T11:26:47.143Z,27584
2016-03-27T11:27:47.287Z,24448
2016-03-27T11:28:47.258Z,24032
2016-03-27T11:29:47.245Z,28672
2016-03-27T11:30:47.232Z,26880
2016-03-27T11:31:47.203Z,22816
2016-03-27T11:32:47.206Z,18816
2016-03-27T11:33:47.162Z,18336
2016-03-27T11:34:47.165Z,17748
2016-03-27T11:35:47.137Z,21536
2016-03-27T11:36:47.123Z,24576
2016-03-27T11:37:47.110Z,23840
2016-03-27T11:38:47.082Z,22208
2016-03-27T11:39:47.069Z,21888
2016-03-27T11:40:47.134Z,23552
2016-03-27T11:41:47.027Z,21472
2016-03-27T11:42:47.014Z,20192
2016-03-27T11:43:46.986Z,21984
2016-03-27T11:44:46.988Z,29504
2016-03-27T11:45:46.960Z,26176
2016-03-27T11:46:46.932Z,27840
2016-03-27T11:47:46.934Z,26272
2016-03-27T11:48:46.890Z,20192
2016-03-27T11:49:46.893Z,19872
2016-03-27T11:50:46.865Z,23904
2016-03-27T11:51:46.851Z,16860
2016-03-27T11:52:46.823Z,13776
2016-03-27T11:53:46.810Z,16876
2016-03-27T11:54:46.796Z,18944
2016-03-27T11:55:46.893Z,20256
2016-03-27T11:56:46.756Z,22368
2016-03-27T11:57:46.743Z,20768
2016-03-27T11:58:46.729Z,22944
2016-03-27T11:59:46.685Z,26400
2016-03-27T12:00:46.688Z,27808
2016-03-27T12:01:46.690Z,27168
2016-03-27T12:02:46.630Z,22752
2016-03-27T12:03:47.431Z,19008
2016-03-27T12:04:46.605Z,20608
2016-03-27T12:05:46.592Z,18464
2016-03-27T12:06:46.564Z,15176
2016-03-27T12:07:46.566Z,15576
2016-03-27T12:08:46.538Z,15616
2016-03-27T12:09:46.509Z,14048
2016-03-27T12:10:46.497Z,13140
2016-03-27T12:11:46.467Z,14380
2016-03-27T12:12:46.470Z,16032
2016-03-27T12:13:46.441Z,15332
2016-03-27T12:14:46.413Z,13864
2016-03-27T12:15:46.415Z,12904
2016-03-27T12:16:46.388Z,12452
2016-03-27T12:17:46.358Z,15204
2016-03-27T12:18:46.596Z,14996
2016-03-27T12:19:46.317Z,13732
2016-03-27T12:20:46.321Z,18944
2016-03-27T12:21:46.291Z,18816
2016-03-27T12:22:46.278Z,16336
2016-03-27T12:23:46.250Z,16636
2016-03-27T12:24:46.237Z,20032
2016-03-27T12:25:46.223Z,19488
2016-03-27T12:26:46.195Z,14164
2016-03-27T12:27:46.182Z,10804
2016-03-27T12:28:46.170Z,10416
2016-03-27T12:29:46.140Z,12448
2016-03-27T12:30:46.128Z,13236
2016-03-27T12:31:46.115Z,12632
2016-03-27T12:32:46.086Z,15368
2016-03-27T12:33:46.292Z,20608
2016-03-27T12:34:46.045Z,26432
2016-03-27T12:35:46.017Z,22112
2016-03-27T12:36:46.003Z,20448
2016-03-27T12:37:46.006Z,17992
2016-03-27T12:38:45.962Z,17452
2016-03-27T12:39:45.949Z,20032
2016-03-27T12:40:45.952Z,19840
2016-03-27T12:41:45.907Z,16584
2016-03-27T12:42:45.895Z,16668
2016-03-27T12:43:45.897Z,14644
2016-03-27T12:44:45.868Z,14096
2016-03-27T12:45:45.840Z,15044
2016-03-27T12:46:45.843Z,17008
2016-03-27T12:47:45.799Z,16448
2016-03-27T12:48:45.801Z,16312
2016-03-27T12:49:45.774Z,19424
2016-03-27T12:50:45.744Z,25696
2016-03-27T12:51:45.715Z,24576
2016-03-27T12:52:45.719Z,21824
2016-03-27T12:53:45.690Z,21184
2016-03-27T12:54:45.693Z,19744
2016-03-27T12:55:45.648Z,19456
2016-03-27T12:56:45.635Z,19392
2016-03-27T12:57:45.623Z,18976
2016-03-27T12:58:45.609Z,17984
2016-03-27T12:59:45.581Z,17760
2016-03-27T13:00:45.568Z,18816
2016-03-27T13:01:45.555Z,18784
2016-03-27T13:02:45.526Z,16728
2016-03-27T13:03:45.545Z,14992
2016-03-27T13:04:45.485Z,14628
2016-03-27T13:05:45.472Z,15252
2016-03-27T13:06:45.475Z,17984
2016-03-27T13:07:45.430Z,19776
2016-03-27T13:08:45.417Z,19424
2016-03-27T13:09:45.420Z,18112
2016-03-27T13:10:45.392Z,16120
2016-03-27T13:11:45.363Z,14660
2016-03-27T13:12:45.350Z,13280
2016-03-27T13:13:45.322Z,11456
2016-03-27T13:14:45.308Z,12076
2016-03-27T13:15:45.327Z,14612
2016-03-27T13:16:45.267Z,17824
2016-03-27T13:17:45.270Z,21312
2016-03-27T13:18:45.227Z,23008
2016-03-27T13:19:45.213Z,20928
2016-03-27T13:20:45.200Z,19648
2016-03-27T13:21:45.187Z,19360
2016-03-27T13:22:45.157Z,25888
2016-03-27T13:23:45.146Z,30144
2016-03-27T13:24:45.117Z,30464
2016-03-27T13:25:45.120Z,29184
2016-03-27T13:26:45.091Z,27744
2016-03-27T13:27:45.063Z,24736
2016-03-27T13:28:45.049Z,20320
2016-03-27T13:29:45.036Z,22880
2016-03-27T13:30:45.024Z,28832
2016-03-27T13:31:44.839Z,29184
2016-03-27T13:32:44.982Z,24384
2016-03-27T13:33:44.970Z,19360
2016-03-27T13:34:44.956Z,15412
2016-03-27T13:35:44.928Z,13068
2016-03-27T13:36:44.914Z,11500
2016-03-27T13:37:44.886Z,11236
2016-03-27T13:38:44.873Z,11544
2016-03-27T13:39:44.861Z,12256
2016-03-27T13:40:44.847Z,11752
2016-03-27T13:41:44.819Z,12672